sensor_id;sensor_type;location;lat;lon;timestamp;temperature;humidity
22852;DHT22;11592;45.460;9.240;2023-04-03T00:00:50;13.80;99.90
22852;DHT22;11592;45.460;9.240;2023-04-03T00:03:18;13.80;99.90
22852;DHT22;11592;45.460;9.240;2023-04-03T00:05:45;13.90;99.90
22852;DHT22;11592;45.460;9.240;2023-04-03T00:08:12;13.80;99.90
22852;DHT22;11592;45.460;9.240;2023-04-03T00:10:39;13.80;99.90
22852;DHT22;11592;45.460;9.240;2023-04-03T00:13:07;13.90;99.90
22852;DHT22;11592;45.460;9.240;2023-04-03T00:15:35;14.00;99.90
22852;DHT22;11592;45.460;9.240;2023-04-03T00:18:02;14.00;99.90
22852;DHT22;11592;45.460;9.240;2023-04-03T00:20:29;13.90;99.90
22852;DHT22;11592;45.460;9.240;2023-04-03T00:22:56;13.90;99.90
22852;DHT22;11592;45.460;9.240;2023-04-03T00:25:23;13.70;99.90
22852;DHT22;11592;45.460;9.240;2023-04-03T00:27:50;13.70;99.90
22852;DHT22;11592;45.460;9.240;2023-04-03T00:30:19;13.50;99.90
22852;DHT22;11592;45.460;9.240;2023-04-03T00:32:48;13.50;99.90
22852;DHT22;11592;45.460;9.240;2023-04-03T00:35:15;13.40;99.90
22852;DHT22;11592;45.460;9.240;2023-04-03T00:37:43;13.40;99.90
22852;DHT22;11592;45.460;9.240;2023-04-03T00:40:10;13.30;99.90
22852;DHT22;11592;45.460;9.240;2023-04-03T00:42:39;13.30;99.90
22852;DHT22;11592;45.460;9.240;2023-04-03T00:48:12;13.30;99.90
22852;DHT22;11592;45.460;9.240;2023-04-03T00:50:41;13.20;99.90
22852;DHT22;11592;45.460;9.240;2023-04-03T00:53:13;13.20;99.90
22852;DHT22;11592;45.460;9.240;2023-04-03T00:55:41;13.10;99.90
22852;DHT22;11592;45.460;9.240;2023-04-03T00:58:10;13.00;99.90
22852;DHT22;11592;45.460;9.240;2023-04-03T01:00:39;13.00;99.90
22852;DHT22;11592;45.460;9.240;2023-04-03T01:03:07;13.00;99.90
22852;DHT22;11592;45.460;9.240;2023-04-03T01:05:33;13.10;99.90
22852;DHT22;11592;45.460;9.240;2023-04-03T01:08:01;13.10;99.90
22852;DHT22;11592;45.460;9.240;2023-04-03T01:10:28;13.10;99.90
22852;DHT22;11592;45.460;9.240;2023-04-03T01:12:55;13.10;99.90
22852;DHT22;11592;45.460;9.240;2023-04-03T01:15:24;13.10;99.90
22852;DHT22;11592;45.460;9.240;2023-04-03T01:17:52;13.10;99.90
22852;DHT22;11592;45.460;9.240;2023-04-03T01:28:07;13.00;99.90
22852;DHT22;11592;45.460;9.240;2023-04-03T01:30:40;12.80;99.90
22852;DHT22;11592;45.460;9.240;2023-04-03T01:33:08;12.90;99.90
22852;DHT22;11592;45.460;9.240;2023-04-03T01:35:34;12.90;99.90
22852;DHT22;11592;45.460;9.240;2023-04-03T01:38:01;12.90;99.90
22852;DHT22;11592;45.460;9.240;2023-04-03T01:40:28;12.80;99.90
22852;DHT22;11592;45.460;9.240;2023-04-03T01:42:55;12.90;99.90
22852;DHT22;11592;45.460;9.240;2023-04-03T01:45:21;12.90;99.90
22852;DHT22;11592;45.460;9.240;2023-04-03T01:47:48;13.00;99.90
22852;DHT22;11592;45.460;9.240;2023-04-03T01:50:15;12.80;99.90
22852;DHT22;11592;45.460;9.240;2023-04-03T01:52:42;12.90;99.90
22852;DHT22;11592;45.460;9.240;2023-04-03T01:55:09;12.80;99.90
22852;DHT22;11592;45.460;9.240;2023-04-03T01:57:36;12.90;99.90
22852;DHT22;11592;45.460;9.240;2023-04-03T02:00:03;12.60;99.90
22852;DHT22;11592;45.460;9.240;2023-04-03T02:02:30;12.60;99.90
22852;DHT22;11592;45.460;9.240;2023-04-03T02:04:57;12.60;99.90
22852;DHT22;11592;45.460;9.240;2023-04-03T02:07:23;12.60;99.90
22852;DHT22;11592;45.460;9.240;2023-04-03T02:09:50;12.50;99.90
22852;DHT22;11592;45.460;9.240;2023-04-03T02:12:17;12.40;99.90
22852;DHT22;11592;45.460;9.240;2023-04-03T02:14:44;12.30;99.90
22852;DHT22;11592;45.460;9.240;2023-04-03T02:17:11;12.30;99.90
22852;DHT22;11592;45.460;9.240;2023-04-03T02:19:37;12.30;99.90
22852;DHT22;11592;45.460;9.240;2023-04-03T02:22:05;12.40;99.90
22852;DHT22;11592;45.460;9.240;2023-04-03T02:24:32;12.50;99.90
22852;DHT22;11592;45.460;9.240;2023-04-03T02:26:59;12.50;99.90
22852;DHT22;11592;45.460;9.240;2023-04-03T02:29:26;12.40;99.90
22852;DHT22;11592;45.460;9.240;2023-04-03T02:31:53;12.40;99.90
22852;DHT22;11592;45.460;9.240;2023-04-03T02:34:19;12.40;99.90
22852;DHT22;11592;45.460;9.240;2023-04-03T02:36:46;12.30;99.90
22852;DHT22;11592;45.460;9.240;2023-04-03T02:39:13;12.30;99.90
22852;DHT22;11592;45.460;9.240;2023-04-03T02:41:40;12.30;99.90
22852;DHT22;11592;45.460;9.240;2023-04-03T02:44:09;12.20;99.90
22852;DHT22;11592;45.460;9.240;2023-04-03T02:46:36;12.20;99.90
22852;DHT22;11592;45.460;9.240;2023-04-03T02:49:03;12.10;99.90
22852;DHT22;11592;45.460;9.240;2023-04-03T02:51:30;12.00;99.90
22852;DHT22;11592;45.460;9.240;2023-04-03T02:53:57;11.90;99.90
22852;DHT22;11592;45.460;9.240;2023-04-03T02:56:24;12.00;99.90
22852;DHT22;11592;45.460;9.240;2023-04-03T02:58:51;11.90;99.90
22852;DHT22;11592;45.460;9.240;2023-04-03T03:01:17;11.90;99.90
22852;DHT22;11592;45.460;9.240;2023-04-03T03:03:44;11.90;99.90
22852;DHT22;11592;45.460;9.240;2023-04-03T03:06:14;12.00;99.90
22852;DHT22;11592;45.460;9.240;2023-04-03T03:08:43;12.00;99.90
22852;DHT22;11592;45.460;9.240;2023-04-03T03:11:10;12.00;99.90
22852;DHT22;11592;45.460;9.240;2023-04-03T03:13:37;12.00;99.90
22852;DHT22;11592;45.460;9.240;2023-04-03T03:16:04;11.90;99.90
22852;DHT22;11592;45.460;9.240;2023-04-03T03:18:32;11.90;99.90
22852;DHT22;11592;45.460;9.240;2023-04-03T03:21:00;11.90;99.90
22852;DHT22;11592;45.460;9.240;2023-04-03T03:23:28;11.80;99.90
22852;DHT22;11592;45.460;9.240;2023-04-03T03:25:57;11.80;99.90
22852;DHT22;11592;45.460;9.240;2023-04-03T03:28:24;11.80;99.90
22852;DHT22;11592;45.460;9.240;2023-04-03T03:30:51;11.80;99.90
22852;DHT22;11592;45.460;9.240;2023-04-03T03:33:18;11.80;99.90
22852;DHT22;11592;45.460;9.240;2023-04-03T03:35:45;11.80;99.90
22852;DHT22;11592;45.460;9.240;2023-04-03T03:38:12;11.70;99.90
22852;DHT22;11592;45.460;9.240;2023-04-03T03:40:39;11.70;99.90
22852;DHT22;11592;45.460;9.240;2023-04-03T03:43:06;11.80;99.90
22852;DHT22;11592;45.460;9.240;2023-04-03T03:45:32;11.80;99.90
22852;DHT22;11592;45.460;9.240;2023-04-03T03:48:00;11.80;99.90
22852;DHT22;11592;45.460;9.240;2023-04-03T03:50:27;12.00;99.90
22852;DHT22;11592;45.460;9.240;2023-04-03T03:52:54;11.80;99.90
22852;DHT22;11592;45.460;9.240;2023-04-03T03:55:20;11.70;99.90
22852;DHT22;11592;45.460;9.240;2023-04-03T03:57:47;11.60;99.90
22852;DHT22;11592;45.460;9.240;2023-04-03T04:00:14;11.50;99.90
22852;DHT22;11592;45.460;9.240;2023-04-03T04:02:42;11.50;99.90
22852;DHT22;11592;45.460;9.240;2023-04-03T04:05:09;11.60;99.90
22852;DHT22;11592;45.460;9.240;2023-04-03T04:07:36;11.50;99.90
22852;DHT22;11592;45.460;9.240;2023-04-03T04:10:03;11.40;99.90
22852;DHT22;11592;45.460;9.240;2023-04-03T04:12:30;11.30;99.90
22852;DHT22;11592;45.460;9.240;2023-04-03T04:14:56;11.40;99.90
22852;DHT22;11592;45.460;9.240;2023-04-03T04:17:23;11.30;99.90
22852;DHT22;11592;45.460;9.240;2023-04-03T04:19:50;11.40;99.90
22852;DHT22;11592;45.460;9.240;2023-04-03T04:22:17;11.40;99.90
22852;DHT22;11592;45.460;9.240;2023-04-03T04:24:43;11.30;99.90
22852;DHT22;11592;45.460;9.240;2023-04-03T04:27:10;11.50;99.90
22852;DHT22;11592;45.460;9.240;2023-04-03T04:29:37;11.40;99.90
22852;DHT22;11592;45.460;9.240;2023-04-03T04:32:04;11.40;99.90
22852;DHT22;11592;45.460;9.240;2023-04-03T04:34:31;11.30;99.90
22852;DHT22;11592;45.460;9.240;2023-04-03T04:36:58;11.20;99.90
22852;DHT22;11592;45.460;9.240;2023-04-03T04:39:24;11.20;99.90
22852;DHT22;11592;45.460;9.240;2023-04-03T04:41:51;11.30;99.90
22852;DHT22;11592;45.460;9.240;2023-04-03T04:44:19;11.60;99.90
22852;DHT22;11592;45.460;9.240;2023-04-03T04:46:46;11.30;99.90
22852;DHT22;11592;45.460;9.240;2023-04-03T04:49:13;11.20;99.90
22852;DHT22;11592;45.460;9.240;2023-04-03T04:51:40;11.30;99.90
22852;DHT22;11592;45.460;9.240;2023-04-03T04:54:17;11.30;99.90
22852;DHT22;11592;45.460;9.240;2023-04-03T04:56:44;11.20;99.90
22852;DHT22;11592;45.460;9.240;2023-04-03T04:59:11;11.20;99.90
22852;DHT22;11592;45.460;9.240;2023-04-03T05:01:38;11.10;99.90
22852;DHT22;11592;45.460;9.240;2023-04-03T05:04:05;11.00;99.90
22852;DHT22;11592;45.460;9.240;2023-04-03T05:06:32;10.90;99.90
22852;DHT22;11592;45.460;9.240;2023-04-03T05:08:59;11.00;99.90
22852;DHT22;11592;45.460;9.240;2023-04-03T05:11:26;11.10;99.90
22852;DHT22;11592;45.460;9.240;2023-04-03T05:13:53;11.10;99.90
22852;DHT22;11592;45.460;9.240;2023-04-03T05:16:20;11.10;99.90
22852;DHT22;11592;45.460;9.240;2023-04-03T05:18:47;11.10;99.90
22852;DHT22;11592;45.460;9.240;2023-04-03T05:21:13;11.10;99.90
22852;DHT22;11592;45.460;9.240;2023-04-03T05:23:40;11.00;99.90
22852;DHT22;11592;45.460;9.240;2023-04-03T05:26:07;11.10;99.90
22852;DHT22;11592;45.460;9.240;2023-04-03T05:28:34;11.20;99.90
22852;DHT22;11592;45.460;9.240;2023-04-03T05:31:01;11.20;99.90
22852;DHT22;11592;45.460;9.240;2023-04-03T05:33:28;11.60;99.90
22852;DHT22;11592;45.460;9.240;2023-04-03T05:35:55;11.20;99.90
22852;DHT22;11592;45.460;9.240;2023-04-03T05:38:22;11.20;99.90
22852;DHT22;11592;45.460;9.240;2023-04-03T05:40:49;11.30;99.90
22852;DHT22;11592;45.460;9.240;2023-04-03T05:43:16;11.30;99.90
22852;DHT22;11592;45.460;9.240;2023-04-03T05:45:43;11.30;99.90
22852;DHT22;11592;45.460;9.240;2023-04-03T05:48:12;11.30;99.90
22852;DHT22;11592;45.460;9.240;2023-04-03T05:50:39;11.40;99.90
22852;DHT22;11592;45.460;9.240;2023-04-03T05:53:18;11.40;99.90
22852;DHT22;11592;45.460;9.240;2023-04-03T05:55:47;11.50;99.90
22852;DHT22;11592;45.460;9.240;2023-04-03T05:58:14;11.50;99.90
22852;DHT22;11592;45.460;9.240;2023-04-03T06:00:41;11.60;99.90
22852;DHT22;11592;45.460;9.240;2023-04-03T06:03:08;11.70;99.90
22852;DHT22;11592;45.460;9.240;2023-04-03T06:05:35;11.80;99.90
22852;DHT22;11592;45.460;9.240;2023-04-03T06:08:03;11.90;99.90
22852;DHT22;11592;45.460;9.240;2023-04-03T06:10:29;11.80;99.90
22852;DHT22;11592;45.460;9.240;2023-04-03T06:12:56;11.90;99.90
22852;DHT22;11592;45.460;9.240;2023-04-03T06:15:23;12.00;99.90
22852;DHT22;11592;45.460;9.240;2023-04-03T06:17:51;12.00;99.90
22852;DHT22;11592;45.460;9.240;2023-04-03T06:20:17;12.10;99.90
22852;DHT22;11592;45.460;9.240;2023-04-03T06:22:44;12.10;99.90
22852;DHT22;11592;45.460;9.240;2023-04-03T06:25:12;12.10;99.90
22852;DHT22;11592;45.460;9.240;2023-04-03T06:27:39;12.20;99.90
22852;DHT22;11592;45.460;9.240;2023-04-03T06:30:07;12.40;99.90
22852;DHT22;11592;45.460;9.240;2023-04-03T06:32:34;12.40;99.90
22852;DHT22;11592;45.460;9.240;2023-04-03T06:35:01;12.40;99.90
22852;DHT22;11592;45.460;9.240;2023-04-03T06:37:28;12.40;99.90
22852;DHT22;11592;45.460;9.240;2023-04-03T06:39:56;12.40;99.90
22852;DHT22;11592;45.460;9.240;2023-04-03T06:42:23;12.50;99.90
22852;DHT22;11592;45.460;9.240;2023-04-03T06:44:50;12.50;99.90
22852;DHT22;11592;45.460;9.240;2023-04-03T06:47:17;12.60;99.90
22852;DHT22;11592;45.460;9.240;2023-04-03T06:49:44;12.80;99.90
22852;DHT22;11592;45.460;9.240;2023-04-03T06:52:12;12.70;99.90
22852;DHT22;11592;45.460;9.240;2023-04-03T06:54:40;12.70;99.90
22852;DHT22;11592;45.460;9.240;2023-04-03T06:57:07;13.00;99.90
22852;DHT22;11592;45.460;9.240;2023-04-03T06:59:35;13.10;99.90
22852;DHT22;11592;45.460;9.240;2023-04-03T07:02:03;13.10;99.90
22852;DHT22;11592;45.460;9.240;2023-04-03T07:04:30;13.30;99.90
22852;DHT22;11592;45.460;9.240;2023-04-03T07:06:57;13.30;99.90
22852;DHT22;11592;45.460;9.240;2023-04-03T07:09:24;13.40;99.90
22852;DHT22;11592;45.460;9.240;2023-04-03T07:11:51;13.40;99.90
22852;DHT22;11592;45.460;9.240;2023-04-03T07:14:18;13.50;99.90
22852;DHT22;11592;45.460;9.240;2023-04-03T07:16:45;13.50;99.90
22852;DHT22;11592;45.460;9.240;2023-04-03T07:19:11;13.60;99.90
22852;DHT22;11592;45.460;9.240;2023-04-03T07:21:38;13.60;99.90
22852;DHT22;11592;45.460;9.240;2023-04-03T07:24:05;13.60;99.90
22852;DHT22;11592;45.460;9.240;2023-04-03T07:26:35;13.70;99.90
22852;DHT22;11592;45.460;9.240;2023-04-03T07:29:02;13.90;99.90
22852;DHT22;11592;45.460;9.240;2023-04-03T07:31:29;14.00;99.90
22852;DHT22;11592;45.460;9.240;2023-04-03T07:33:56;14.00;99.90
22852;DHT22;11592;45.460;9.240;2023-04-03T07:36:23;14.10;99.90
22852;DHT22;11592;45.460;9.240;2023-04-03T07:38:50;14.00;99.90
22852;DHT22;11592;45.460;9.240;2023-04-03T07:41:18;14.10;99.90
22852;DHT22;11592;45.460;9.240;2023-04-03T07:43:46;14.20;99.90
22852;DHT22;11592;45.460;9.240;2023-04-03T07:46:13;14.20;99.90
22852;DHT22;11592;45.460;9.240;2023-04-03T07:48:40;14.30;99.90
22852;DHT22;11592;45.460;9.240;2023-04-03T07:51:07;14.40;99.90
22852;DHT22;11592;45.460;9.240;2023-04-03T07:53:34;14.40;99.90
22852;DHT22;11592;45.460;9.240;2023-04-03T07:56:01;14.40;99.90
22852;DHT22;11592;45.460;9.240;2023-04-03T07:58:30;14.50;99.90
22852;DHT22;11592;45.460;9.240;2023-04-03T08:00:57;14.50;99.90
22852;DHT22;11592;45.460;9.240;2023-04-03T08:03:24;14.50;99.90
22852;DHT22;11592;45.460;9.240;2023-04-03T08:05:51;14.70;99.90
22852;DHT22;11592;45.460;9.240;2023-04-03T08:08:21;14.60;99.90
22852;DHT22;11592;45.460;9.240;2023-04-03T08:10:50;14.80;99.90
22852;DHT22;11592;45.460;9.240;2023-04-03T08:13:18;14.80;99.90
22852;DHT22;11592;45.460;9.240;2023-04-03T08:15:46;14.80;99.90
22852;DHT22;11592;45.460;9.240;2023-04-03T08:18:14;14.90;99.90
22852;DHT22;11592;45.460;9.240;2023-04-03T08:20:41;14.90;99.90
22852;DHT22;11592;45.460;9.240;2023-04-03T08:23:08;14.90;99.90
22852;DHT22;11592;45.460;9.240;2023-04-03T08:25:39;14.80;99.90
22852;DHT22;11592;45.460;9.240;2023-04-03T08:28:07;14.80;99.90
22852;DHT22;11592;45.460;9.240;2023-04-03T08:30:34;15.00;99.90
22852;DHT22;11592;45.460;9.240;2023-04-03T08:33:03;15.10;99.90
22852;DHT22;11592;45.460;9.240;2023-04-03T08:35:30;15.20;99.90
22852;DHT22;11592;45.460;9.240;2023-04-03T08:37:57;15.20;99.90
22852;DHT22;11592;45.460;9.240;2023-04-03T08:40:24;15.30;99.90
22852;DHT22;11592;45.460;9.240;2023-04-03T08:45:46;15.20;99.90
22852;DHT22;11592;45.460;9.240;2023-04-03T08:48:24;15.20;99.90
22852;DHT22;11592;45.460;9.240;2023-04-03T08:50:56;15.30;99.90
22852;DHT22;11592;45.460;9.240;2023-04-03T08:53:30;15.40;99.90
22852;DHT22;11592;45.460;9.240;2023-04-03T08:56:08;15.60;99.90
22852;DHT22;11592;45.460;9.240;2023-04-03T08:58:49;15.70;99.90
22852;DHT22;11592;45.460;9.240;2023-04-03T09:01:34;15.70;99.90
22852;DHT22;11592;45.460;9.240;2023-04-03T09:04:03;15.70;99.90
22852;DHT22;11592;45.460;9.240;2023-04-03T09:06:36;15.70;99.90
22852;DHT22;11592;45.460;9.240;2023-04-03T09:09:34;15.60;99.90
22852;DHT22;11592;45.460;9.240;2023-04-03T09:12:13;15.60;99.90
22852;DHT22;11592;45.460;9.240;2023-04-03T09:20:38;15.70;99.90
22852;DHT22;11592;45.460;9.240;2023-04-03T09:23:49;15.70;99.90
22852;DHT22;11592;45.460;9.240;2023-04-03T09:26:29;15.60;99.90
22852;DHT22;11592;45.460;9.240;2023-04-03T09:29:00;15.70;99.90
22852;DHT22;11592;45.460;9.240;2023-04-03T09:31:42;15.90;99.90
22852;DHT22;11592;45.460;9.240;2023-04-03T09:34:20;16.00;99.90
22852;DHT22;11592;45.460;9.240;2023-04-03T09:36:51;16.00;99.90
22852;DHT22;11592;45.460;9.240;2023-04-03T09:39:28;16.10;99.90
22852;DHT22;11592;45.460;9.240;2023-04-03T09:44:31;16.20;99.90
22852;DHT22;11592;45.460;9.240;2023-04-03T09:46:59;16.30;99.90
22852;DHT22;11592;45.460;9.240;2023-04-03T09:49:26;16.40;99.90
22852;DHT22;11592;45.460;9.240;2023-04-03T09:51:53;16.50;99.90
22852;DHT22;11592;45.460;9.240;2023-04-03T09:54:38;16.70;99.90
22852;DHT22;11592;45.460;9.240;2023-04-03T09:57:10;16.80;99.90
22852;DHT22;11592;45.460;9.240;2023-04-03T09:59:59;16.80;99.90
22852;DHT22;11592;45.460;9.240;2023-04-03T10:02:40;16.90;99.90
22852;DHT22;11592;45.460;9.240;2023-04-03T10:05:33;16.90;99.90
22852;DHT22;11592;45.460;9.240;2023-04-03T10:10:42;17.00;99.90
22852;DHT22;11592;45.460;9.240;2023-04-03T10:13:20;17.10;99.90
22852;DHT22;11592;45.460;9.240;2023-04-03T10:15:56;17.30;99.90
22852;DHT22;11592;45.460;9.240;2023-04-03T10:21:29;17.60;99.90
22852;DHT22;11592;45.460;9.240;2023-04-03T10:24:59;17.60;99.90
22852;DHT22;11592;45.460;9.240;2023-04-03T10:28:01;17.90;99.90
22852;DHT22;11592;45.460;9.240;2023-04-03T10:31:01;18.00;99.90
22852;DHT22;11592;45.460;9.240;2023-04-03T10:36:46;17.80;99.90
22852;DHT22;11592;45.460;9.240;2023-04-03T10:39:28;17.60;99.90
22852;DHT22;11592;45.460;9.240;2023-04-03T10:42:38;17.80;99.90
22852;DHT22;11592;45.460;9.240;2023-04-03T10:53:40;19.20;99.90
22852;DHT22;11592;45.460;9.240;2023-04-03T11:02:18;20.20;99.90
22852;DHT22;11592;45.460;9.240;2023-04-03T11:04:51;20.30;99.90
22852;DHT22;11592;45.460;9.240;2023-04-03T11:07:26;20.50;99.90
22852;DHT22;11592;45.460;9.240;2023-04-03T11:10:02;20.50;99.90
22852;DHT22;11592;45.460;9.240;2023-04-03T11:12:38;20.40;99.90
22852;DHT22;11592;45.460;9.240;2023-04-03T11:15:12;20.50;99.90
22852;DHT22;11592;45.460;9.240;2023-04-03T11:17:55;20.00;99.90
22852;DHT22;11592;45.460;9.240;2023-04-03T11:20:30;20.20;99.90
22852;DHT22;11592;45.460;9.240;2023-04-03T11:25:42;21.00;99.80
22852;DHT22;11592;45.460;9.240;2023-04-03T11:28:15;21.30;99.90
22852;DHT22;11592;45.460;9.240;2023-04-03T11:31:10;21.40;99.50
22852;DHT22;11592;45.460;9.240;2023-04-03T11:36:58;21.90;98.70
22852;DHT22;11592;45.460;9.240;2023-04-03T11:39:32;22.00;97.90
22852;DHT22;11592;45.460;9.240;2023-04-03T11:44:46;21.90;96.60
22852;DHT22;11592;45.460;9.240;2023-04-03T11:47:49;21.90;96.60
22852;DHT22;11592;45.460;9.240;2023-04-03T11:58:19;23.00;94.40
22852;DHT22;11592;45.460;9.240;2023-04-03T12:00:48;22.60;94.30
22852;DHT22;11592;45.460;9.240;2023-04-03T12:05:54;22.90;95.30
22852;DHT22;11592;45.460;9.240;2023-04-03T12:08:29;23.20;94.10
22852;DHT22;11592;45.460;9.240;2023-04-03T12:14:03;23.50;94.30
22852;DHT22;11592;45.460;9.240;2023-04-03T12:16:46;24.00;93.40
22852;DHT22;11592;45.460;9.240;2023-04-03T12:40:50;28.00;81.10
22852;DHT22;11592;45.460;9.240;2023-04-03T12:46:38;31.20;66.00
22852;DHT22;11592;45.460;9.240;2023-04-03T12:49:37;33.00;59.30
22852;DHT22;11592;45.460;9.240;2023-04-03T12:54:46;35.90;50.20
22852;DHT22;11592;45.460;9.240;2023-04-03T12:57:21;36.70;47.00
22852;DHT22;11592;45.460;9.240;2023-04-03T12:59:48;37.50;43.60
22852;DHT22;11592;45.460;9.240;2023-04-03T13:04:53;38.20;40.30
22852;DHT22;11592;45.460;9.240;2023-04-03T13:10:22;38.70;37.80
22852;DHT22;11592;45.460;9.240;2023-04-03T13:15:23;39.30;36.90
22852;DHT22;11592;45.460;9.240;2023-04-03T13:17:50;39.70;36.00
22852;DHT22;11592;45.460;9.240;2023-04-03T13:23:07;38.30;36.00
22852;DHT22;11592;45.460;9.240;2023-04-03T13:25:42;38.50;35.80
22852;DHT22;11592;45.460;9.240;2023-04-03T13:28:13;38.90;35.80
22852;DHT22;11592;45.460;9.240;2023-04-03T13:30:41;38.40;35.40
22852;DHT22;11592;45.460;9.240;2023-04-03T13:33:25;38.70;35.30
22852;DHT22;11592;45.460;9.240;2023-04-03T13:36:08;38.40;36.80
22852;DHT22;11592;45.460;9.240;2023-04-03T13:38:37;38.90;34.70
22852;DHT22;11592;45.460;9.240;2023-04-03T13:41:31;38.90;32.50
22852;DHT22;11592;45.460;9.240;2023-04-03T13:46:42;39.50;33.40
22852;DHT22;11592;45.460;9.240;2023-04-03T13:51:55;40.00;32.20
22852;DHT22;11592;45.460;9.240;2023-04-03T13:54:37;39.30;32.60
22852;DHT22;11592;45.460;9.240;2023-04-03T13:57:13;39.30;32.20
22852;DHT22;11592;45.460;9.240;2023-04-03T13:59:40;39.60;31.70
22852;DHT22;11592;45.460;9.240;2023-04-03T14:02:18;39.30;33.10
22852;DHT22;11592;45.460;9.240;2023-04-03T14:04:55;39.00;32.60
22852;DHT22;11592;45.460;9.240;2023-04-03T14:07:28;37.70;33.60
22852;DHT22;11592;45.460;9.240;2023-04-03T14:09:55;36.00;34.70
22852;DHT22;11592;45.460;9.240;2023-04-03T14:12:37;32.80;38.20
22852;DHT22;11592;45.460;9.240;2023-04-03T14:15:22;29.80;40.00
22852;DHT22;11592;45.460;9.240;2023-04-03T14:17:50;27.60;43.70
22852;DHT22;11592;45.460;9.240;2023-04-03T14:20:26;26.10;45.40
22852;DHT22;11592;45.460;9.240;2023-04-03T14:22:54;25.10;47.50
22852;DHT22;11592;45.460;9.240;2023-04-03T14:25:22;24.10;49.20
22852;DHT22;11592;45.460;9.240;2023-04-03T14:27:51;23.50;53.40
22852;DHT22;11592;45.460;9.240;2023-04-03T14:30:26;23.10;53.30
22852;DHT22;11592;45.460;9.240;2023-04-03T14:32:53;22.60;55.40
22852;DHT22;11592;45.460;9.240;2023-04-03T14:35:21;22.30;57.10
22852;DHT22;11592;45.460;9.240;2023-04-03T14:37:49;22.00;58.30
22852;DHT22;11592;45.460;9.240;2023-04-03T14:40:22;21.80;59.50
22852;DHT22;11592;45.460;9.240;2023-04-03T14:42:49;21.60;61.80
22852;DHT22;11592;45.460;9.240;2023-04-03T14:45:16;21.50;64.40
22852;DHT22;11592;45.460;9.240;2023-04-03T14:47:51;21.40;62.70
22852;DHT22;11592;45.460;9.240;2023-04-03T14:50:22;21.20;64.00
22852;DHT22;11592;45.460;9.240;2023-04-03T14:52:51;21.20;63.80
22852;DHT22;11592;45.460;9.240;2023-04-03T14:55:20;21.10;65.00
22852;DHT22;11592;45.460;9.240;2023-04-03T14:57:47;21.10;65.10
22852;DHT22;11592;45.460;9.240;2023-04-03T15:00:17;21.00;64.30
22852;DHT22;11592;45.460;9.240;2023-04-03T15:02:44;20.70;64.70
22852;DHT22;11592;45.460;9.240;2023-04-03T15:05:13;20.50;65.00
22852;DHT22;11592;45.460;9.240;2023-04-03T15:07:45;20.40;64.70
22852;DHT22;11592;45.460;9.240;2023-04-03T15:12:44;20.50;66.10
22852;DHT22;11592;45.460;9.240;2023-04-03T15:15:12;20.40;67.10
22852;DHT22;11592;45.460;9.240;2023-04-03T15:17:39;20.30;66.20
22852;DHT22;11592;45.460;9.240;2023-04-03T15:20:16;20.20;67.40
22852;DHT22;11592;45.460;9.240;2023-04-03T15:22:43;20.10;67.90
22852;DHT22;11592;45.460;9.240;2023-04-03T15:25:11;20.00;68.20
22852;DHT22;11592;45.460;9.240;2023-04-03T15:27:38;19.40;67.70
22852;DHT22;11592;45.460;9.240;2023-04-03T15:30:08;20.10;68.20
22852;DHT22;11592;45.460;9.240;2023-04-03T15:32:37;19.90;68.30
22852;DHT22;11592;45.460;9.240;2023-04-03T15:35:04;19.80;68.90
22852;DHT22;11592;45.460;9.240;2023-04-03T15:37:31;19.70;69.20
22852;DHT22;11592;45.460;9.240;2023-04-03T15:39:59;19.60;69.30
22852;DHT22;11592;45.460;9.240;2023-04-03T15:42:25;19.60;69.10
22852;DHT22;11592;45.460;9.240;2023-04-03T15:44:52;19.60;69.50
22852;DHT22;11592;45.460;9.240;2023-04-03T15:47:19;19.50;70.00
22852;DHT22;11592;45.460;9.240;2023-04-03T15:49:46;19.40;70.80
22852;DHT22;11592;45.460;9.240;2023-04-03T15:52:13;19.30;70.20
22852;DHT22;11592;45.460;9.240;2023-04-03T15:54:40;19.30;70.90
22852;DHT22;11592;45.460;9.240;2023-04-03T15:57:06;19.30;70.60
22852;DHT22;11592;45.460;9.240;2023-04-03T15:59:33;19.40;70.20
22852;DHT22;11592;45.460;9.240;2023-04-03T16:02:01;19.10;70.10
22852;DHT22;11592;45.460;9.240;2023-04-03T16:04:30;19.00;71.40
22852;DHT22;11592;45.460;9.240;2023-04-03T16:06:56;18.90;71.30
22852;DHT22;11592;45.460;9.240;2023-04-03T16:09:23;18.80;71.50
22852;DHT22;11592;45.460;9.240;2023-04-03T16:11:50;19.10;70.20
22852;DHT22;11592;45.460;9.240;2023-04-03T16:14:17;20.50;69.00
22852;DHT22;11592;45.460;9.240;2023-04-03T16:16:43;21.60;64.30
22852;DHT22;11592;45.460;9.240;2023-04-03T16:19:11;22.00;62.50
22852;DHT22;11592;45.460;9.240;2023-04-03T16:21:38;21.10;62.50
22852;DHT22;11592;45.460;9.240;2023-04-03T16:24:05;20.10;64.60
22852;DHT22;11592;45.460;9.240;2023-04-03T16:26:32;18.00;66.40
22852;DHT22;11592;45.460;9.240;2023-04-03T16:28:58;18.80;68.80
22852;DHT22;11592;45.460;9.240;2023-04-03T16:31:26;18.50;70.80
22852;DHT22;11592;45.460;9.240;2023-04-03T16:33:53;18.30;72.30
22852;DHT22;11592;45.460;9.240;2023-04-03T16:36:20;18.20;71.70
22852;DHT22;11592;45.460;9.240;2023-04-03T16:38:47;17.90;72.60
22852;DHT22;11592;45.460;9.240;2023-04-03T16:41:14;17.90;73.60
22852;DHT22;11592;45.460;9.240;2023-04-03T16:43:41;17.90;73.70
22852;DHT22;11592;45.460;9.240;2023-04-03T16:46:09;17.90;74.00
22852;DHT22;11592;45.460;9.240;2023-04-03T16:48:35;17.70;73.70
22852;DHT22;11592;45.460;9.240;2023-04-03T16:51:02;17.60;74.70
22852;DHT22;11592;45.460;9.240;2023-04-03T16:53:29;17.50;75.30
22852;DHT22;11592;45.460;9.240;2023-04-03T16:55:58;17.30;75.70
22852;DHT22;11592;45.460;9.240;2023-04-03T16:58:25;17.20;76.10
22852;DHT22;11592;45.460;9.240;2023-04-03T17:00:51;17.20;76.40
22852;DHT22;11592;45.460;9.240;2023-04-03T17:03:20;17.00;76.50
22852;DHT22;11592;45.460;9.240;2023-04-03T17:05:47;16.90;76.40
22852;DHT22;11592;45.460;9.240;2023-04-03T17:08:16;16.90;77.10
22852;DHT22;11592;45.460;9.240;2023-04-03T17:10:43;16.90;76.80
22852;DHT22;11592;45.460;9.240;2023-04-03T17:13:10;16.80;77.10
22852;DHT22;11592;45.460;9.240;2023-04-03T17:15:37;16.90;77.30
22852;DHT22;11592;45.460;9.240;2023-04-03T17:18:04;16.80;77.20
22852;DHT22;11592;45.460;9.240;2023-04-03T17:20:31;16.70;76.60
22852;DHT22;11592;45.460;9.240;2023-04-03T17:23:00;15.60;76.40
22852;DHT22;11592;45.460;9.240;2023-04-03T17:25:27;16.50;77.30
22852;DHT22;11592;45.460;9.240;2023-04-03T17:27:53;16.50;77.80
22852;DHT22;11592;45.460;9.240;2023-04-03T17:30:20;16.50;77.20
22852;DHT22;11592;45.460;9.240;2023-04-03T17:32:47;16.40;77.70
22852;DHT22;11592;45.460;9.240;2023-04-03T17:35:14;17.10;78.80
22852;DHT22;11592;45.460;9.240;2023-04-03T17:37:41;16.20;78.30
22852;DHT22;11592;45.460;9.240;2023-04-03T17:40:08;16.00;78.60